createdAt,value
2023-05-05T00:04:13.911Z,9.36
2023-05-05T00:14:22.966Z,9.25
2023-05-05T00:24:24.970Z,8.89
2023-05-05T00:34:26.905Z,8.42
2023-05-05T00:44:41.194Z,8.89
2023-05-05T00:54:43.181Z,8.94
2023-05-05T01:04:52.913Z,9.13
2023-05-05T01:15:32.795Z,9.13
2023-05-05T01:25:54.864Z,9.02
2023-05-05T01:36:22.987Z,8.84
2023-05-05T01:46:25.217Z,8.87
2023-05-05T01:56:29.124Z,8.78
2023-05-05T02:06:56.842Z,8.69
2023-05-05T02:16:59.959Z,8.80
2023-05-05T02:27:06.507Z,8.79
2023-05-05T02:37:12.847Z,8.76
2023-05-05T02:47:39.524Z,8.80
2023-05-05T02:57:56.246Z,8.85
2023-05-05T03:08:28.559Z,8.92
2023-05-05T03:18:32.062Z,8.96
2023-05-05T03:28:33.923Z,9.03
2023-05-05T03:38:35.867Z,9.22
2023-05-05T03:48:37.777Z,9.45
2023-05-05T03:58:39.718Z,9.82
2023-05-05T04:08:44.686Z,10.74
2023-05-05T04:18:55.566Z,11.60
2023-05-05T04:29:02.707Z,11.73
2023-05-05T04:39:04.718Z,11.48
2023-05-05T04:49:16.250Z,11.84
2023-05-05T04:59:36.772Z,12.52
2023-05-05T05:10:04.298Z,12.24
2023-05-05T05:20:08.193Z,12.16
2023-05-05T05:30:10.809Z,12.25
2023-05-05T05:40:13.221Z,13.37
2023-05-05T05:50:15.748Z,13.43
2023-05-05T06:00:17.949Z,13.75
2023-05-05T06:10:27.901Z,13.73
2023-05-05T06:20:39.676Z,14.17
2023-05-05T06:30:44.671Z,14.68
2023-05-05T06:40:53.710Z,15.27
2023-05-05T06:51:06.978Z,16.95
2023-05-05T07:01:09.090Z,17.26
2023-05-05T07:11:12.114Z,16.63
2023-05-05T07:21:16.101Z,17.02
2023-05-05T07:31:26.077Z,17.68
2023-05-05T07:41:28.091Z,16.94
2023-05-05T07:51:34.404Z,19.12
2023-05-05T08:01:39.553Z,18.03
2023-05-05T08:11:41.487Z,19.11
2023-05-05T08:21:49.440Z,17.52
2023-05-05T08:31:51.495Z,18.21
2023-05-05T08:41:53.453Z,17.08
2023-05-05T08:52:05.704Z,18.22
2023-05-05T09:02:10.324Z,17.83
2023-05-05T09:12:30.819Z,17.23
2023-05-05T09:22:39.011Z,17.70
2023-05-05T09:32:50.335Z,17.49
2023-05-05T09:43:02.163Z,17.12
2023-05-05T09:53:04.492Z,17.44
2023-05-05T10:03:08.561Z,17.32
2023-05-05T10:13:19.857Z,18.23
2023-05-05T10:23:24.256Z,17.47
2023-05-05T10:33:35.976Z,17.72
2023-05-05T10:43:44.328Z,16.98
2023-05-05T10:54:10.561Z,16.78
2023-05-05T11:04:23.440Z,16.85
2023-05-05T11:14:35.737Z,16.64
2023-05-05T11:24:39.948Z,16.44
2023-05-05T11:34:52.044Z,16.20
2023-05-05T11:45:19.963Z,16.15
2023-05-05T11:55:23.229Z,16.20
2023-05-05T12:05:25.438Z,15.70
2023-05-05T12:15:33.868Z,15.68
2023-05-05T12:25:39.350Z,15.42
2023-05-05T12:35:51.562Z,15.46
2023-05-05T12:46:12.857Z,15.46
2023-05-05T12:56:40.828Z,15.57
2023-05-05T13:06:48.700Z,15.67
2023-05-05T13:16:53.276Z,15.60
2023-05-05T13:26:56.089Z,15.05
2023-05-05T13:37:01.285Z,14.95
2023-05-05T13:47:03.537Z,14.86
2023-05-05T13:57:20.926Z,15.19
2023-05-05T14:07:28.916Z,15.13
2023-05-05T14:17:30.898Z,15.05
2023-05-05T14:27:32.847Z,14.73
2023-05-05T14:37:35.070Z,14.86
2023-05-05T14:47:37.073Z,14.76
2023-05-05T14:57:44.177Z,14.67
2023-05-05T15:07:48.577Z,14.54
2023-05-05T15:17:51.708Z,14.42
2023-05-05T15:27:54.155Z,14.35
2023-05-05T15:37:56.181Z,14.20
2023-05-05T15:47:58.212Z,14.01
2023-05-05T15:58:00.172Z,13.78
2023-05-05T16:08:13.119Z,13.46
2023-05-05T16:18:16.284Z,13.35
2023-05-05T16:28:18.835Z,13.46
2023-05-05T16:38:21.964Z,13.38
2023-05-05T16:48:28.061Z,13.19
2023-05-05T16:58:32.667Z,12.88
2023-05-05T17:09:00.199Z,12.62
2023-05-05T17:19:11.135Z,12.38
2023-05-05T17:29:15.607Z,12.33
2023-05-05T17:39:22.518Z,12.23
2023-05-05T17:49:25.579Z,12.12
2023-05-05T17:59:27.420Z,11.79
2023-05-05T18:09:31.646Z,11.70
2023-05-05T18:19:46.627Z,11.59
2023-05-05T18:29:54.983Z,11.48
2023-05-05T18:39:56.982Z,11.37
2023-05-05T18:50:00.208Z,11.30
2023-05-05T19:00:03.380Z,11.09
2023-05-05T19:10:11.763Z,10.91
2023-05-05T19:20:17.468Z,10.90
2023-05-05T19:30:19.429Z,10.77
2023-05-05T19:40:21.456Z,10.59
2023-05-05T19:50:28.036Z,10.57
2023-05-05T20:00:30.077Z,10.26
2023-05-05T20:10:32.203Z,10.37
2023-05-05T20:20:35.295Z,10.26
2023-05-05T20:30:37.359Z,10.38
2023-05-05T20:40:42.231Z,10.47
2023-05-05T20:50:44.370Z,10.58
2023-05-05T21:00:47.534Z,10.53
2023-05-05T21:10:49.559Z,10.47
2023-05-05T21:20:54.660Z,10.41
2023-05-05T21:31:19.894Z,10.28
2023-05-05T21:41:18.521Z,10.19
2023-05-05T21:51:20.505Z,10.02
2023-05-05T22:01:22.457Z,9.90
2023-05-05T22:11:24.491Z,9.83
2023-05-05T22:21:27.782Z,9.59
2023-05-05T22:31:44.159Z,9.61
2023-05-05T22:41:46.858Z,9.39
2023-05-05T22:51:48.914Z,9.47
2023-05-05T23:01:50.850Z,9.51
2023-05-05T23:11:52.806Z,9.58
2023-05-05T23:21:55.194Z,9.62
2023-05-05T23:31:57.762Z,9.53
2023-05-05T23:41:59.686Z,9.53
2023-05-05T23:52:01.701Z,9.47
